Minerva Atlantica — ZCPR7 — position and weather

sailwx.info

Track history (hours):
 
Tides and Currents Weather Stations Pressure Air Temp Water Temp Dewpoint Dewpoint Depression Visibility Wind Speed Wind Dir Waves Ship Positions

Minerva Atlantica

Last reported at 2016-Feb-08 07:33 UTC. Time now 2016-Feb-08 08:13 UTC.
Position N 56°47' E 011°51'.

Length 250 m; draft 12.5 m.

Type: Tanker. MMSI: 319161000.

Date/timePositionNaut miles runAvg speedWind from/ knotsBaromVisibWave heightAir tempDewpointWater temp
2016-Feb-08 07:33N 56°47' E 011°51'1312.8
2016-Feb-08 06:33N 56°59' E 011°43'1312.8
2016-Feb-08 05:33N 57°10' E 011°35'1312.9
2016-Feb-08 04:33N 57°23' E 011°26'1312.7
2016-Feb-08 03:33N 57°33' E 011°13'1313.1
2016-Feb-08 02:33N 57°42' E 010°54'10 9.8
2016-Feb-08 01:33N 57°47' E 010°39'1312.6
2016-Feb-08 00:33N 57°48' E 010°16'1514.4
2016-Feb-07 23:32N 57°48' E 009°48'1515.1
2016-Feb-07 22:33N 57°47' E 009°20'7214.3
2016-Feb-07 17:32N 57°42' E 007°06'1313.5
2016-Feb-07 16:33N 57°43' E 006°41'1211.8
2016-Feb-07 15:33N 57°48' E 006°22'1211.6
2016-Feb-07 14:33N 57°56' E 006°05'1313.0
2016-Feb-07 13:33N 58°04' E 005°47'2512.3
2016-Feb-07 11:33N 58°21' E 005°12'1212.1
2016-Feb-07 10:33N 58°29' E 004°56'1212.1
2016-Feb-07 09:33N 58°38' E 004°40'  
2016-Feb-04 08:28N 58°53' E 004°25'8 8.3
2016-Feb-04 07:33N 58°47' E 004°35'9 9.5
2016-Feb-04 06:34N 58°41' E 004°48'1010.0
2016-Feb-04 05:34N 58°33' E 005°01'10 9.9
2016-Feb-04 04:33N 58°26' E 005°14'10 9.5
2016-Feb-04 03:32N 58°20' E 005°28'10 9.5
2016-Feb-04 02:30N 58°13' E 005°42'9 9.4
2016-Feb-04 01:33N 58°07' E 005°55'9 9.3
2016-Feb-04 00:33N 58°01' E 006°08'9 9.1
2016-Feb-03 23:33N 57°55' E 006°21'9 9.0
2016-Feb-03 22:33N 57°49' E 006°34'9 9.0
2016-Feb-03 21:33N 57°47' E 006°50'1010.2
2016-Feb-03 20:33N 57°47' E 007°09'10710.7
2016-Feb-03 10:34N 57°49' E 010°29'9 8.6
2016-Feb-03 09:34N 57°48' E 010°45'9 9.1
2016-Feb-03 08:34N 57°43' E 010°60'9 9.3
2016-Feb-03 07:33N 57°38' E 011°14'9 9.2
2016-Feb-03 06:33N 57°33' E 011°29'8 8.4
2016-Feb-03 05:34N 57°38' E 011°41'4 4.0
2016-Feb-03 04:33N 57°41' E 011°47'0 0.0
2016-Feb-03 03:33N 57°41' E 011°47'0 0.0
2016-Feb-03 02:33N 57°41' E 011°47'0 0.0
2016-Feb-03 01:33N 57°41' E 011°47'0 0.0
2016-Feb-03 00:33N 57°41' E 011°47'0 0.0
2016-Feb-02 23:33N 57°41' E 011°47'0 0.0
2016-Feb-02 22:33N 57°41' E 011°47'0 0.0
2016-Feb-02 21:33N 57°41' E 011°47'0 0.0
2016-Feb-02 20:33N 57°41' E 011°47'0 0.0
2016-Feb-02 19:33N 57°41' E 011°47'0 0.0
2016-Feb-02 18:30N 57°41' E 011°47'0 0.0
2016-Feb-02 17:33N 57°41' E 011°47'0 0.0
2016-Feb-02 16:33N 57°41' E 011°47'0 0.0
2016-Feb-02 15:33N 57°41' E 011°47'0 0.0
2016-Feb-02 14:33N 57°41' E 011°47'0 0.0
2016-Feb-02 13:33N 57°41' E 011°47'0 0.0
2016-Feb-02 12:33N 57°41' E 011°47'0 0.0
2016-Feb-02 11:33N 57°41' E 011°47'0 0.0
2016-Feb-02 10:33N 57°41' E 011°47'0 0.0
2016-Feb-02 09:33N 57°41' E 011°47'0 0.0
2016-Feb-02 08:33N 57°41' E 011°47'0 0.0
2016-Feb-02 07:33N 57°41' E 011°47'0 0.0
2016-Feb-02 06:33N 57°41' E 011°47'0 0.0
2016-Feb-02 05:33N 57°41' E 011°47'0 0.0
2016-Feb-02 04:33N 57°41' E 011°47'0 0.0
2016-Feb-02 03:33N 57°41' E 011°47'0 0.0
2016-Feb-02 02:33N 57°41' E 011°47'0 0.0
2016-Feb-02 01:33N 57°41' E 011°47'0 0.0
2016-Feb-02 00:33N 57°41' E 011°47'0 0.0
2016-Feb-01 23:33N 57°41' E 011°47'0 0.0
2016-Feb-01 22:33N 57°41' E 011°47'0 0.0
2016-Feb-01 21:33N 57°41' E 011°47'0 0.0
2016-Feb-01 20:30N 57°41' E 011°47'0 0.0
2016-Feb-01 19:33N 57°41' E 011°47'0 0.0
2016-Feb-01 18:33N 57°41' E 011°47'0 0.0
2016-Feb-01 17:33N 57°41' E 011°47'0 0.0
2016-Feb-01 16:33N 57°41' E 011°47'0 0.0
2016-Feb-01 15:33N 57°41' E 011°47'0 0.0
2016-Feb-01 14:33N 57°41' E 011°47'0 0.0
2016-Feb-01 13:33N 57°41' E 011°47'0 0.0
2016-Feb-01 12:33N 57°41' E 011°47'0 0.0
2016-Feb-01 11:33N 57°41' E 011°47'0 0.0
2016-Feb-01 10:33N 57°41' E 011°47'0 0.0
2016-Feb-01 09:33N 57°41' E 011°47'0 0.0
2016-Feb-01 08:33N 57°41' E 011°47'0 0.0
2016-Feb-01 07:33N 57°41' E 011°47'0 0.0
2016-Feb-01 06:33N 57°41' E 011°47'0 0.0
2016-Feb-01 05:33N 57°41' E 011°47'4 3.6
2016-Feb-01 04:33N 57°39' E 011°41'6 6.0
2016-Feb-01 03:33N 57°34' E 011°35'0 0.0
2016-Feb-01 02:32N 57°34' E 011°35'0 0.0
2016-Feb-01 01:32N 57°34' E 011°35'0 0.0
2016-Feb-01 00:32N 57°34' E 011°35'0 0.0
2016-Jan-31 23:32N 57°34' E 011°35'0 0.0
2016-Jan-31 22:17N 57°34' E 011°35'0 0.0
2016-Jan-31 21:32N 57°34' E 011°35'0 0.0
2016-Jan-31 20:32N 57°34' E 011°35'0 0.0
2016-Jan-31 19:32N 57°34' E 011°35'0 0.0
2016-Jan-31 18:32N 57°34' E 011°35'0 0.0
2016-Jan-31 17:29N 57°34' E 011°35'0 0.0
2016-Jan-31 16:32N 57°34' E 011°35'0 0.1
2016-Jan-31 15:29N 57°34' E 011°35'0 0.0
2016-Jan-31 14:29N 57°34' E 011°35'0 0.0
2016-Jan-31 13:32N 57°34' E 011°35'0 0.0
2016-Jan-31 12:29N 57°34' E 011°35'0 0.0
2016-Jan-31 11:32N 57°34' E 011°35'0 0.0
2016-Jan-31 10:29N 57°34' E 011°35'0 0.1
2016-Jan-31 09:29N 57°34' E 011°35'0 0.1
2016-Jan-31 08:32N 57°34' E 011°35'0 0.0
2016-Jan-31 07:32N 57°34' E 011°35'0 0.0
2016-Jan-31 06:26N 57°34' E 011°35'0 0.0
2016-Jan-31 05:29N 57°34' E 011°35'0 0.1
2016-Jan-31 04:32N 57°34' E 011°35'0 0.2
2016-Jan-31 03:32N 57°35' E 011°35'0 0.0
2016-Jan-31 02:32N 57°35' E 011°35'0 0.0
2016-Jan-31 01:32N 57°35' E 011°35'0 0.0
2016-Jan-31 00:29N 57°35' E 011°35'0 0.0
2016-Jan-30 23:32N 57°35' E 011°35'1 0.5
2016-Jan-30 22:33N 57°34' E 011°35'9 9.5
2016-Jan-30 21:33N 57°25' E 011°37'1312.7
2016-Jan-30 20:33N 57°12' E 011°39'1212.4
2016-Jan-30 19:33N 57°00' E 011°45'1212.1
2016-Jan-30 18:33N 56°49' E 011°52'1211.7
2016-Jan-30 17:33N 56°37' E 011°47'  
Track history (hours):
 
Tides and Currents Weather Stations Pressure Air Temp Water Temp Dewpoint Dewpoint Depression Visibility Wind Speed Wind Dir Waves Ship Positions

Minerva Atlantica

Last reported at 2016-Feb-08 07:33 UTC. Time now 2016-Feb-08 08:13 UTC.
Position N 56°47' E 011°51'.

Length 250 m; draft 12.5 m.

Type: Tanker. MMSI: 319161000.

Date/timePositionNaut miles runAvg speedWind from/ knotsBaromVisibWave heightAir tempDewpointWater temp
2016-Feb-08 07:33N 56°47' E 011°51'1312.8
2016-Feb-08 06:33N 56°59' E 011°43'1312.8
2016-Feb-08 05:33N 57°10' E 011°35'1312.9
2016-Feb-08 04:33N 57°23' E 011°26'1312.7
2016-Feb-08 03:33N 57°33' E 011°13'1313.1
2016-Feb-08 02:33N 57°42' E 010°54'10 9.8
2016-Feb-08 01:33N 57°47' E 010°39'1312.6
2016-Feb-08 00:33N 57°48' E 010°16'1514.4
2016-Feb-07 23:32N 57°48' E 009°48'1515.1
2016-Feb-07 22:33N 57°47' E 009°20'7214.3
2016-Feb-07 17:32N 57°42' E 007°06'1313.5
2016-Feb-07 16:33N 57°43' E 006°41'1211.8
2016-Feb-07 15:33N 57°48' E 006°22'1211.6
2016-Feb-07 14:33N 57°56' E 006°05'1313.0
2016-Feb-07 13:33N 58°04' E 005°47'2512.3
2016-Feb-07 11:33N 58°21' E 005°12'1212.1
2016-Feb-07 10:33N 58°29' E 004°56'1212.1
2016-Feb-07 09:33N 58°38' E 004°40'  
2016-Feb-04 08:28N 58°53' E 004°25'8 8.3
2016-Feb-04 07:33N 58°47' E 004°35'9 9.5
2016-Feb-04 06:34N 58°41' E 004°48'1010.0
2016-Feb-04 05:34N 58°33' E 005°01'10 9.9
2016-Feb-04 04:33N 58°26' E 005°14'10 9.5
2016-Feb-04 03:32N 58°20' E 005°28'10 9.5
2016-Feb-04 02:30N 58°13' E 005°42'9 9.4
2016-Feb-04 01:33N 58°07' E 005°55'9 9.3
2016-Feb-04 00:33N 58°01' E 006°08'9 9.1
2016-Feb-03 23:33N 57°55' E 006°21'9 9.0
2016-Feb-03 22:33N 57°49' E 006°34'9 9.0
2016-Feb-03 21:33N 57°47' E 006°50'1010.2
2016-Feb-03 20:33N 57°47' E 007°09'10710.7
2016-Feb-03 10:34N 57°49' E 010°29'9 8.6
2016-Feb-03 09:34N 57°48' E 010°45'9 9.1
2016-Feb-03 08:34N 57°43' E 010°60'9 9.3
2016-Feb-03 07:33N 57°38' E 011°14'9 9.2
2016-Feb-03 06:33N 57°33' E 011°29'8 8.4
2016-Feb-03 05:34N 57°38' E 011°41'4 4.0
2016-Feb-03 04:33N 57°41' E 011°47'0 0.0
2016-Feb-03 03:33N 57°41' E 011°47'0 0.0
2016-Feb-03 02:33N 57°41' E 011°47'0 0.0
2016-Feb-03 01:33N 57°41' E 011°47'0 0.0
2016-Feb-03 00:33N 57°41' E 011°47'0 0.0
2016-Feb-02 23:33N 57°41' E 011°47'0 0.0
2016-Feb-02 22:33N 57°41' E 011°47'0 0.0
2016-Feb-02 21:33N 57°41' E 011°47'0 0.0
2016-Feb-02 20:33N 57°41' E 011°47'0 0.0
2016-Feb-02 19:33N 57°41' E 011°47'0 0.0
2016-Feb-02 18:30N 57°41' E 011°47'0 0.0
2016-Feb-02 17:33N 57°41' E 011°47'0 0.0
2016-Feb-02 16:33N 57°41' E 011°47'0 0.0
2016-Feb-02 15:33N 57°41' E 011°47'0 0.0
2016-Feb-02 14:33N 57°41' E 011°47'0 0.0
2016-Feb-02 13:33N 57°41' E 011°47'0 0.0
2016-Feb-02 12:33N 57°41' E 011°47'0 0.0
2016-Feb-02 11:33N 57°41' E 011°47'0 0.0
2016-Feb-02 10:33N 57°41' E 011°47'0 0.0
2016-Feb-02 09:33N 57°41' E 011°47'0 0.0
2016-Feb-02 08:33N 57°41' E 011°47'0 0.0
2016-Feb-02 07:33N 57°41' E 011°47'0 0.0
2016-Feb-02 06:33N 57°41' E 011°47'0 0.0
2016-Feb-02 05:33N 57°41' E 011°47'0 0.0
2016-Feb-02 04:33N 57°41' E 011°47'0 0.0
2016-Feb-02 03:33N 57°41' E 011°47'0 0.0
2016-Feb-02 02:33N 57°41' E 011°47'0 0.0
2016-Feb-02 01:33N 57°41' E 011°47'0 0.0
2016-Feb-02 00:33N 57°41' E 011°47'0 0.0
2016-Feb-01 23:33N 57°41' E 011°47'0 0.0
2016-Feb-01 22:33N 57°41' E 011°47'0 0.0
2016-Feb-01 21:33N 57°41' E 011°47'0 0.0
2016-Feb-01 20:30N 57°41' E 011°47'0 0.0
2016-Feb-01 19:33N 57°41' E 011°47'0 0.0
2016-Feb-01 18:33N 57°41' E 011°47'0 0.0
2016-Feb-01 17:33N 57°41' E 011°47'0 0.0
2016-Feb-01 16:33N 57°41' E 011°47'0 0.0
2016-Feb-01 15:33N 57°41' E 011°47'0 0.0
2016-Feb-01 14:33N 57°41' E 011°47'0 0.0
2016-Feb-01 13:33N 57°41' E 011°47'0 0.0
2016-Feb-01 12:33N 57°41' E 011°47'0 0.0
2016-Feb-01 11:33N 57°41' E 011°47'0 0.0
2016-Feb-01 10:33N 57°41' E 011°47'0 0.0
2016-Feb-01 09:33N 57°41' E 011°47'0 0.0
2016-Feb-01 08:33N 57°41' E 011°47'0 0.0
2016-Feb-01 07:33N 57°41' E 011°47'0 0.0
2016-Feb-01 06:33N 57°41' E 011°47'0 0.0
2016-Feb-01 05:33N 57°41' E 011°47'4 3.6
2016-Feb-01 04:33N 57°39' E 011°41'6 6.0
2016-Feb-01 03:33N 57°34' E 011°35'0 0.0
2016-Feb-01 02:32N 57°34' E 011°35'0 0.0
2016-Feb-01 01:32N 57°34' E 011°35'0 0.0
2016-Feb-01 00:32N 57°34' E 011°35'0 0.0
2016-Jan-31 23:32N 57°34' E 011°35'0 0.0
2016-Jan-31 22:17N 57°34' E 011°35'0 0.0
2016-Jan-31 21:32N 57°34' E 011°35'0 0.0
2016-Jan-31 20:32N 57°34' E 011°35'0 0.0
2016-Jan-31 19:32N 57°34' E 011°35'0 0.0
2016-Jan-31 18:32N 57°34' E 011°35'0 0.0
2016-Jan-31 17:29N 57°34' E 011°35'0 0.0
2016-Jan-31 16:32N 57°34' E 011°35'0 0.1
2016-Jan-31 15:29N 57°34' E 011°35'0 0.0
2016-Jan-31 14:29N 57°34' E 011°35'0 0.0
2016-Jan-31 13:32N 57°34' E 011°35'0 0.0
2016-Jan-31 12:29N 57°34' E 011°35'0 0.0
2016-Jan-31 11:32N 57°34' E 011°35'0 0.0
2016-Jan-31 10:29N 57°34' E 011°35'0 0.1
2016-Jan-31 09:29N 57°34' E 011°35'0 0.1
2016-Jan-31 08:32N 57°34' E 011°35'0 0.0
2016-Jan-31 07:32N 57°34' E 011°35'0 0.0
2016-Jan-31 06:26N 57°34' E 011°35'0 0.0
2016-Jan-31 05:29N 57°34' E 011°35'0 0.1
2016-Jan-31 04:32N 57°34' E 011°35'0 0.2
2016-Jan-31 03:32N 57°35' E 011°35'0 0.0
2016-Jan-31 02:32N 57°35' E 011°35'0 0.0
2016-Jan-31 01:32N 57°35' E 011°35'0 0.0
2016-Jan-31 00:29N 57°35' E 011°35'0 0.0
2016-Jan-30 23:32N 57°35' E 011°35'1 0.5
2016-Jan-30 22:33N 57°34' E 011°35'9 9.5
2016-Jan-30 21:33N 57°25' E 011°37'1312.7
2016-Jan-30 20:33N 57°12' E 011°39'1212.4
2016-Jan-30 19:33N 57°00' E 011°45'1212.1
2016-Jan-30 18:33N 56°49' E 011°52'1211.7
2016-Jan-30 17:33N 56°37' E 011°47'  

Dump ship's entire track history